createdAt,value
2023-02-14T00:00:25.766Z,3.2
2023-02-14T00:03:25.772Z,3.2
2023-02-14T00:06:25.777Z,3.1
2023-02-14T00:09:25.786Z,3.1
2023-02-14T00:12:25.794Z,3
2023-02-14T00:15:25.842Z,2.9
2023-02-14T00:18:25.802Z,2.9
2023-02-14T00:21:25.794Z,2.8
2023-02-14T00:24:25.809Z,2.7
2023-02-14T00:27:25.811Z,2.5
2023-02-14T00:30:25.971Z,2.4
2023-02-14T00:33:25.906Z,2.3
2023-02-14T00:36:25.815Z,2.2
2023-02-14T00:39:25.813Z,2.3
2023-02-14T00:42:25.829Z,2.2
2023-02-14T00:45:25.842Z,2.2
2023-02-14T00:48:25.821Z,2.2
2023-02-14T00:51:25.855Z,2.2
2023-02-14T00:54:25.826Z,2.1
2023-02-14T00:57:25.849Z,2.1
2023-02-14T01:00:25.837Z,2
2023-02-14T01:03:25.833Z,1.9
2023-02-14T01:06:25.838Z,1.9
2023-02-14T01:09:25.861Z,1.8
2023-02-14T01:12:25.848Z,1.7
2023-02-14T01:15:25.848Z,1.6
2023-02-14T01:18:25.843Z,1.5
2023-02-14T01:21:25.844Z,1.5
2023-02-14T01:24:25.841Z,1.4
2023-02-14T01:27:25.881Z,1.4
2023-02-14T01:30:25.893Z,1.4
2023-02-14T01:33:25.850Z,1.4
2023-02-14T01:36:25.851Z,1.4
2023-02-14T01:39:25.850Z,1.4
2023-02-14T01:42:25.864Z,1.5
2023-02-14T01:45:25.900Z,1.5
2023-02-14T01:48:25.863Z,1.6
2023-02-14T01:51:25.866Z,1.7
2023-02-14T01:54:25.886Z,1.7
2023-02-14T01:57:25.891Z,1.9
2023-02-14T02:00:25.941Z,2
2023-02-14T02:03:25.950Z,2.1
2023-02-14T02:06:25.919Z,2.2
2023-02-14T02:09:25.925Z,2.3
2023-02-14T02:12:25.945Z,2.4
2023-02-14T02:15:25.960Z,2.4
2023-02-14T02:18:25.980Z,2.5
2023-02-14T02:21:25.991Z,2.5
2023-02-14T02:24:25.970Z,2.5
2023-02-14T02:27:26.333Z,2.5
2023-02-14T02:30:26.070Z,2.5
2023-02-14T02:33:25.985Z,2.6
2023-02-14T02:36:25.995Z,2.6
2023-02-14T02:39:26.023Z,2.6
2023-02-14T02:42:26.003Z,2.7
2023-02-14T02:45:26.013Z,2.6
2023-02-14T02:48:26.020Z,2.7
2023-02-14T02:51:26.021Z,2.7
2023-02-14T02:54:26.025Z,2.7
2023-02-14T02:57:26.060Z,2.7
2023-02-14T03:00:26.042Z,2.8
2023-02-14T03:03:26.042Z,2.8
2023-02-14T03:06:26.049Z,2.8
2023-02-14T03:09:26.062Z,2.8
2023-02-14T03:12:26.055Z,2.8
2023-02-14T03:15:26.167Z,2.8
2023-02-14T03:18:26.065Z,2.8
2023-02-14T03:21:26.073Z,2.8
2023-02-14T03:24:26.072Z,2.8
2023-02-14T03:27:26.086Z,2.9
2023-02-14T03:30:26.244Z,2.8
2023-02-14T03:33:26.113Z,2.8
2023-02-14T03:36:26.097Z,2.6
2023-02-14T03:39:26.094Z,2.4
2023-02-14T03:42:26.103Z,2.2
2023-02-14T03:45:26.149Z,2.1
2023-02-14T03:48:26.108Z,2
2023-02-14T03:51:26.152Z,2
2023-02-14T03:54:26.136Z,1.9
2023-02-14T03:57:26.122Z,1.7
2023-02-14T04:00:26.129Z,1.6
2023-02-14T04:03:26.319Z,1.5
2023-02-14T04:06:26.143Z,1.3
2023-02-14T04:09:26.172Z,1.1
2023-02-14T04:12:37.029Z,1
2023-02-14T04:15:26.151Z,1
2023-02-14T04:18:26.152Z,0.9
2023-02-14T04:21:26.164Z,0.8
2023-02-14T04:24:26.174Z,0.7
2023-02-14T04:27:26.203Z,0.7
2023-02-14T04:30:26.247Z,0.6
2023-02-14T04:33:26.186Z,0.5
2023-02-14T04:36:26.185Z,0.4
2023-02-14T04:39:26.188Z,0.4
2023-02-14T04:42:26.191Z,0.3
2023-02-14T04:45:26.225Z,0.3
2023-02-14T04:48:26.197Z,0.3
2023-02-14T04:51:27.614Z,0.4
2023-02-14T04:54:26.210Z,0.3
2023-02-14T04:57:26.224Z,0.3
2023-02-14T05:00:26.306Z,0.1
2023-02-14T05:03:26.248Z,0
2023-02-14T05:06:26.223Z,0
2023-02-14T05:09:26.225Z,0
2023-02-14T05:12:26.238Z,-0.1
2023-02-14T05:15:26.232Z,0
2023-02-14T05:18:26.237Z,0
2023-02-14T05:21:26.272Z,-0.1
2023-02-14T05:24:26.242Z,-0.2
2023-02-14T05:27:26.250Z,-0.2
2023-02-14T05:30:26.361Z,-0.2
2023-02-14T05:33:26.345Z,-0.2
2023-02-14T05:36:26.253Z,-0.2
2023-02-14T05:39:26.291Z,-0.3
2023-02-14T05:42:26.266Z,-0.3
2023-02-14T05:45:26.317Z,-0.5
2023-02-14T05:48:26.276Z,-0.5
2023-02-14T05:51:26.282Z,-0.5
2023-02-14T05:54:26.286Z,-0.5
2023-02-14T05:57:26.316Z,-0.5
2023-02-14T06:00:26.303Z,-0.6
2023-02-14T06:03:26.411Z,-0.5
2023-02-14T06:06:26.303Z,-0.7
2023-02-14T06:09:26.312Z,-0.8
2023-02-14T06:12:26.318Z,-0.8
2023-02-14T06:15:26.348Z,-0.9
2023-02-14T06:18:26.324Z,-0.9
2023-02-14T06:21:26.333Z,-0.9
2023-02-14T06:24:26.349Z,-1
2023-02-14T06:27:26.344Z,-1
2023-02-14T06:30:26.454Z,-1.1
2023-02-14T06:33:26.379Z,-1
2023-02-14T06:36:26.354Z,-1
2023-02-14T06:39:26.358Z,-1.1
2023-02-14T06:42:26.367Z,-1.1
2023-02-14T06:45:26.362Z,-1.2
2023-02-14T06:48:26.371Z,-1.2
2023-02-14T06:51:26.398Z,-1.2
2023-02-14T06:54:26.378Z,-1.2
2023-02-14T06:57:26.394Z,-1
2023-02-14T07:00:26.384Z,-1
2023-02-14T07:03:26.385Z,-0.9
2023-02-14T07:06:26.391Z,-0.9
2023-02-14T07:09:26.419Z,-0.9
2023-02-14T07:12:26.400Z,-0.8
2023-02-14T07:15:26.485Z,-0.8
2023-02-14T07:18:26.406Z,-0.7
2023-02-14T07:21:26.408Z,-0.6
2023-02-14T07:24:26.435Z,-0.4
2023-02-14T07:27:26.460Z,-0.2
2023-02-14T07:30:26.480Z,0.1
2023-02-14T07:33:26.437Z,0.5
2023-02-14T07:36:26.437Z,0.8
2023-02-14T07:39:26.442Z,1.1
2023-02-14T07:42:26.458Z,1.4
2023-02-14T07:45:26.490Z,1.7
2023-02-14T07:48:27.516Z,2.1
2023-02-14T07:51:26.472Z,2.5
2023-02-14T07:54:26.474Z,2.8
2023-02-14T07:57:26.474Z,3.1
2023-02-14T08:00:26.484Z,3.4
2023-02-14T08:03:26.516Z,3.7
2023-02-14T08:06:26.495Z,3.9
2023-02-14T08:09:26.598Z,4.1
2023-02-14T08:12:26.518Z,4.3
2023-02-14T08:15:26.509Z,4.4
2023-02-14T08:18:26.594Z,4.7
2023-02-14T08:21:26.539Z,5.1
2023-02-14T08:24:26.511Z,5.3
2023-02-14T08:27:26.520Z,5.5
2023-02-14T08:30:26.547Z,5.8
2023-02-14T08:33:26.525Z,5.9
2023-02-14T08:36:26.523Z,6.1
2023-02-14T08:39:26.586Z,6.4
2023-02-14T08:42:26.537Z,6.8
2023-02-14T08:45:26.547Z,7.1
2023-02-14T08:48:26.561Z,7.4
2023-02-14T08:51:26.554Z,7.7
2023-02-14T08:54:26.555Z,7.9
2023-02-14T08:57:26.593Z,7.9
2023-02-14T09:00:26.731Z,7.9
2023-02-14T09:03:26.616Z,8.2
2023-02-14T09:06:26.603Z,8.5
2023-02-14T09:09:26.587Z,8.9
2023-02-14T09:12:26.602Z,9.2
2023-02-14T09:15:26.643Z,9.4
2023-02-14T09:18:26.635Z,9.4
2023-02-14T09:21:26.650Z,9.5
2023-02-14T09:24:26.601Z,9.6
2023-02-14T09:27:26.604Z,9.5
2023-02-14T09:30:26.674Z,9.6
2023-02-14T09:33:26.654Z,9.7
2023-02-14T09:36:26.622Z,9.9
2023-02-14T09:39:26.613Z,10.1
2023-02-14T09:42:26.624Z,10.3
2023-02-14T09:45:26.827Z,10.6
2023-02-14T09:48:28.192Z,10.7
2023-02-14T09:51:26.666Z,10.9
2023-02-14T09:54:26.640Z,11.1
2023-02-14T09:57:26.639Z,11.3
2023-02-14T10:00:26.647Z,11.4
2023-02-14T10:03:26.651Z,11.6
2023-02-14T10:06:26.654Z,11.7
2023-02-14T10:09:26.689Z,11.9
2023-02-14T10:12:26.690Z,12.1
2023-02-14T10:15:26.662Z,12.2
2023-02-14T10:18:26.668Z,12.3
2023-02-14T10:21:26.671Z,12.3
2023-02-14T10:24:26.684Z,12.4
2023-02-14T10:27:26.710Z,12.3
2023-02-14T10:30:26.763Z,12.2
2023-02-14T10:33:26.685Z,11.7
2023-02-14T10:36:26.693Z,11.5
2023-02-14T10:39:26.693Z,11.2
2023-02-14T10:42:26.698Z,10.8
2023-02-14T10:45:26.736Z,10.7
2023-02-14T10:48:26.725Z,10.7
2023-02-14T10:51:26.749Z,10.5
2023-02-14T10:54:26.721Z,10.6
2023-02-14T10:57:26.759Z,10.7
2023-02-14T11:00:26.723Z,10.8
2023-02-14T11:03:26.790Z,10.9
2023-02-14T11:06:26.744Z,10.9
2023-02-14T11:09:26.743Z,10.8
2023-02-14T11:12:26.752Z,10.6
2023-02-14T11:15:26.748Z,10.6
2023-02-14T11:18:26.754Z,10.7
2023-02-14T11:21:26.781Z,10.8
2023-02-14T11:24:26.761Z,10.9
2023-02-14T11:27:26.764Z,11
2023-02-14T11:30:26.828Z,11
2023-02-14T11:33:26.772Z,11
2023-02-14T11:36:26.783Z,11
2023-02-14T11:39:26.818Z,10.9
2023-02-14T11:42:26.790Z,10.9
2023-02-14T11:45:26.786Z,10.8
2023-02-14T11:48:42.205Z,10.8
2023-02-14T11:51:26.803Z,10.7
2023-02-14T11:54:26.802Z,10.7
2023-02-14T11:57:26.841Z,10.6
2023-02-14T12:00:26.939Z,10.4
2023-02-14T12:03:26.857Z,10.2
2023-02-14T12:06:26.823Z,9.9
2023-02-14T12:09:26.863Z,9.8
2023-02-14T12:12:26.865Z,9.8
2023-02-14T12:15:26.915Z,9.8
2023-02-14T12:18:26.852Z,9.7
2023-02-14T12:21:26.855Z,9.6
2023-02-14T12:24:26.857Z,9.5
2023-02-14T12:27:26.857Z,9.4
2023-02-14T12:30:26.908Z,9.4
2023-02-14T12:33:26.893Z,9.4
2023-02-14T12:36:26.876Z,9.3
2023-02-14T12:39:26.887Z,9.3
2023-02-14T12:42:26.879Z,9.3
2023-02-14T12:45:26.879Z,9.3
2023-02-14T12:48:26.886Z,9.3
2023-02-14T12:51:26.928Z,9.2
2023-02-14T12:54:26.901Z,9.1
2023-02-14T12:57:26.905Z,8.9
2023-02-14T13:00:26.906Z,8.8
2023-02-14T13:03:26.911Z,8.9
2023-02-14T13:06:26.909Z,8.8
2023-02-14T13:09:27.595Z,8.8
2023-02-14T13:12:26.918Z,8.8
2023-02-14T13:15:27.303Z,8.7
2023-02-14T13:18:27.273Z,8.7
2023-02-14T13:21:27.345Z,8.7
2023-02-14T13:24:27.391Z,8.6
2023-02-14T13:27:26.957Z,8.6
2023-02-14T13:30:27.610Z,8.6
2023-02-14T13:33:27.249Z,8.5
2023-02-14T13:36:27.428Z,8.4
2023-02-14T13:39:27.236Z,8.3
2023-02-14T13:42:27.032Z,8.1
2023-02-14T13:45:27.090Z,8
2023-02-14T13:48:27.419Z,7.9
2023-02-14T13:51:27.033Z,7.8
2023-02-14T13:54:27.064Z,7.7
2023-02-14T13:57:27.009Z,7.7
2023-02-14T14:00:26.975Z,7.6
2023-02-14T14:03:27.225Z,7.6
2023-02-14T14:06:26.982Z,7.6
2023-02-14T14:09:26.984Z,7.6
2023-02-14T14:12:27.025Z,7.6
2023-02-14T14:15:26.998Z,7.6
2023-02-14T14:18:27.023Z,7.6
2023-02-14T14:21:27.035Z,7.6
2023-02-14T14:24:27.018Z,7.6
2023-02-14T14:27:27.021Z,7.6
2023-02-14T14:30:27.099Z,7.5
2023-02-14T14:33:27.028Z,7.5
2023-02-14T14:36:27.030Z,7.5
2023-02-14T14:39:27.060Z,7.4
2023-02-14T14:42:27.045Z,7.3
2023-02-14T14:45:27.095Z,7.2
2023-02-14T14:48:27.064Z,7.2
2023-02-14T14:51:27.070Z,7.2
2023-02-14T14:54:27.061Z,7.1
2023-02-14T14:57:27.118Z,7.1
2023-02-14T15:00:27.072Z,7.1
2023-02-14T15:03:27.074Z,7.2
2023-02-14T15:06:27.075Z,7.3
2023-02-14T15:09:27.079Z,7.1
2023-02-14T15:12:27.079Z,6.9
2023-02-14T15:15:27.110Z,6.7
2023-02-14T15:18:27.088Z,6.5
2023-02-14T15:21:27.091Z,6.3
2023-02-14T15:24:27.091Z,6.3
2023-02-14T15:27:27.099Z,6.2
2023-02-14T15:30:27.383Z,6.1
2023-02-14T15:33:27.124Z,6
2023-02-14T15:36:27.113Z,5.9
2023-02-14T15:39:27.120Z,5.9
2023-02-14T15:42:27.116Z,5.8
2023-02-14T15:45:27.213Z,5.7
2023-02-14T15:48:27.116Z,5.6
2023-02-14T15:51:27.149Z,5.5
2023-02-14T15:54:27.123Z,5.5
2023-02-14T15:57:27.124Z,5.4
2023-02-14T16:00:27.140Z,5.3
2023-02-14T16:03:27.142Z,5.3
2023-02-14T16:06:27.152Z,5.2
2023-02-14T16:09:27.189Z,5.1
2023-02-14T16:12:27.162Z,5
2023-02-14T16:15:27.229Z,5
2023-02-14T16:18:27.186Z,4.9
2023-02-14T16:21:27.196Z,4.7
2023-02-14T16:24:27.204Z,4.6
2023-02-14T16:27:27.229Z,4.5
2023-02-14T16:30:27.334Z,4.4
2023-02-14T16:33:27.217Z,4.3
2023-02-14T16:36:27.227Z,4.2
2023-02-14T16:39:27.228Z,4.1
2023-02-14T16:42:27.227Z,3.9
2023-02-14T16:45:27.262Z,3.8
2023-02-14T16:48:27.240Z,3.7
2023-02-14T16:51:27.249Z,3.6
2023-02-14T16:54:27.244Z,3.5
2023-02-14T16:57:27.982Z,3.4
2023-02-14T17:00:27.260Z,3.4
2023-02-14T17:03:27.288Z,3.3
2023-02-14T17:06:27.278Z,3.3
2023-02-14T17:09:27.288Z,3.1
2023-02-14T17:12:27.285Z,3
2023-02-14T17:15:27.295Z,3
2023-02-14T17:18:27.286Z,3
2023-02-14T17:21:27.337Z,3.1
2023-02-14T17:24:27.298Z,3.1
2023-02-14T17:27:27.305Z,3
2023-02-14T17:30:27.364Z,2.9
2023-02-14T17:33:27.309Z,2.8
2023-02-14T17:36:27.312Z,2.8
2023-02-14T17:39:27.358Z,2.8
2023-02-14T17:42:27.320Z,2.8
2023-02-14T17:45:27.321Z,2.7
2023-02-14T17:48:27.332Z,2.7
2023-02-14T17:51:27.334Z,2.7
2023-02-14T17:54:27.336Z,2.6
2023-02-14T17:57:27.372Z,2.6
2023-02-14T18:00:27.356Z,2.5
2023-02-14T18:03:27.361Z,2.4
2023-02-14T18:06:27.366Z,2.4
2023-02-14T18:09:27.382Z,2.4
2023-02-14T18:12:27.374Z,2.4
2023-02-14T18:15:27.414Z,2.4
2023-02-14T18:18:27.381Z,2.4
2023-02-14T18:21:27.380Z,2.3
2023-02-14T18:24:27.383Z,2.2
2023-02-14T18:27:27.398Z,2.1
2023-02-14T18:30:27.463Z,1.8
2023-02-14T18:33:27.417Z,1.7
2023-02-14T18:36:27.400Z,1.5
2023-02-14T18:39:27.398Z,1.5
2023-02-14T18:42:27.407Z,1.5
2023-02-14T18:45:27.436Z,1.5
2023-02-14T18:48:27.416Z,1.5
2023-02-14T18:51:27.443Z,1.4
2023-02-14T18:54:27.423Z,1.4
2023-02-14T18:57:27.424Z,1.4
2023-02-14T19:00:27.438Z,1.4
2023-02-14T19:03:27.437Z,1.6
2023-02-14T19:06:27.449Z,1.7
2023-02-14T19:09:27.486Z,1.7
2023-02-14T19:12:27.463Z,1.7
2023-02-14T19:15:27.475Z,1.7
2023-02-14T19:18:27.479Z,1.7
2023-02-14T19:21:27.480Z,1.7
2023-02-14T19:24:27.482Z,1.6
2023-02-14T19:27:27.520Z,1.7
2023-02-14T19:30:27.550Z,1.8
2023-02-14T19:33:27.497Z,1.9
2023-02-14T19:36:27.505Z,2
2023-02-14T19:39:27.506Z,2
2023-02-14T19:42:27.510Z,2
2023-02-14T19:45:27.721Z,2
2023-02-14T19:48:27.522Z,1.9
2023-02-14T19:51:27.536Z,1.9
2023-02-14T19:54:27.539Z,2
2023-02-14T19:57:27.538Z,2
2023-02-14T20:00:27.538Z,2
2023-02-14T20:03:27.575Z,2
2023-02-14T20:06:27.572Z,2
2023-02-14T20:09:27.563Z,2
2023-02-14T20:12:27.575Z,2
2023-02-14T20:15:27.575Z,1.9
2023-02-14T20:18:27.568Z,1.8
2023-02-14T20:21:27.595Z,1.8
2023-02-14T20:24:27.572Z,1.7
2023-02-14T20:27:27.585Z,1.7
2023-02-14T20:30:27.669Z,1.7
2023-02-14T20:33:27.588Z,1.6
2023-02-14T20:36:27.623Z,1.5
2023-02-14T20:39:27.628Z,1.4
2023-02-14T20:42:27.601Z,1.4
2023-02-14T20:45:27.607Z,1.3
2023-02-14T20:48:27.610Z,1.3
2023-02-14T20:51:27.626Z,1.2
2023-02-14T20:54:27.641Z,1.2
2023-02-14T20:57:27.659Z,1.1
2023-02-14T21:00:27.631Z,1
2023-02-14T21:03:27.649Z,1
2023-02-14T21:06:27.666Z,0.9
2023-02-14T21:09:27.636Z,0.9
2023-02-14T21:12:27.646Z,0.9
2023-02-14T21:15:27.742Z,0.9
2023-02-14T21:18:27.651Z,0.8
2023-02-14T21:21:27.660Z,0.7
2023-02-14T21:24:27.665Z,0.5
2023-02-14T21:27:27.671Z,0.4
2023-02-14T21:30:27.703Z,0.4
2023-02-14T21:33:27.709Z,0.4
2023-02-14T21:36:27.682Z,0.5
2023-02-14T21:39:27.710Z,0.6
2023-02-14T21:42:27.706Z,0.6
2023-02-14T21:45:27.702Z,0.5
2023-02-14T21:48:27.705Z,0.4
2023-02-14T21:51:27.749Z,0.3
2023-02-14T21:54:27.714Z,0.3
2023-02-14T21:57:27.714Z,0.4
2023-02-14T22:00:27.718Z,0.4
2023-02-14T22:03:27.725Z,0.3
2023-02-14T22:06:27.757Z,0.2
2023-02-14T22:09:27.765Z,0.1
2023-02-14T22:12:27.735Z,0
2023-02-14T22:15:27.739Z,0
2023-02-14T22:18:27.747Z,-0.1
2023-02-14T22:21:27.749Z,-0.2
2023-02-14T22:24:27.752Z,-0.2
2023-02-14T22:27:27.770Z,-0.1
2023-02-14T22:30:27.763Z,-0.1
2023-02-14T22:33:27.971Z,0
2023-02-14T22:36:27.753Z,-0.1
2023-02-14T22:39:27.762Z,-0.3
2023-02-14T22:42:27.774Z,-0.4
2023-02-14T22:45:27.794Z,-0.5
2023-02-14T22:48:27.767Z,-0.4
2023-02-14T22:51:27.788Z,-0.3
2023-02-14T22:54:27.783Z,-0.2
2023-02-14T22:57:27.783Z,-0.1
2023-02-14T23:00:27.815Z,0
2023-02-14T23:03:27.834Z,0
2023-02-14T23:06:27.798Z,0
2023-02-14T23:09:27.798Z,0
2023-02-14T23:12:27.803Z,0
2023-02-14T23:15:27.809Z,0
2023-02-14T23:18:27.805Z,-0.1
2023-02-14T23:21:27.842Z,-0.1
2023-02-14T23:24:27.823Z,-0.2
2023-02-14T23:27:27.828Z,-0.3
2023-02-14T23:30:27.883Z,-0.3
2023-02-14T23:33:27.844Z,-0.4
2023-02-14T23:36:27.858Z,-0.5
2023-02-14T23:39:27.892Z,-0.5
2023-02-14T23:42:27.862Z,-0.5
2023-02-14T23:45:27.900Z,-0.5
2023-02-14T23:48:27.867Z,-0.5
2023-02-14T23:51:27.875Z,-0.5
2023-02-14T23:54:27.895Z,-0.5
2023-02-14T23:57:27.909Z,-0.5
